createdAt,value
2022-08-07T00:00:57.727Z,15.36
2022-08-07T00:06:01.286Z,15.35
2022-08-07T00:11:06.360Z,15.21
2022-08-07T00:16:08.719Z,15.17
2022-08-07T00:21:57.311Z,15.09
2022-08-07T00:26:58.942Z,14.82
2022-08-07T00:32:03.298Z,14.65
2022-08-07T00:37:07.334Z,14.60
2022-08-07T00:42:09.710Z,14.61
2022-08-07T00:47:15.684Z,14.28
2022-08-07T00:52:33.232Z,14.29
2022-08-07T00:57:35.130Z,14.11
2022-08-07T01:02:40.217Z,14.21
2022-08-07T01:07:41.827Z,14.15
2022-08-07T01:12:53.756Z,14.05
2022-08-07T01:17:56.325Z,14.08
2022-08-07T01:23:12.061Z,14.16
2022-08-07T01:28:14.639Z,14.17
2022-08-07T01:33:16.810Z,14.17
2022-08-07T01:38:24.913Z,13.94
2022-08-07T01:43:34.692Z,14.06
2022-08-07T01:48:42.148Z,13.66
2022-08-07T01:54:06.267Z,13.83
2022-08-07T01:59:21.645Z,13.76
2022-08-07T02:04:38.213Z,13.74
2022-08-07T02:09:52.746Z,13.68
2022-08-07T02:14:57.076Z,13.57
2022-08-07T02:20:04.374Z,13.64
2022-08-07T02:25:17.285Z,13.53
2022-08-07T02:30:19.710Z,13.55
2022-08-07T02:36:28.645Z,13.30
2022-08-07T02:40:46.668Z,13.21
2022-08-07T02:46:00.320Z,13.14
2022-08-07T02:51:28.968Z,13.13
2022-08-07T03:02:55.525Z,12.97
2022-08-07T03:08:05.312Z,13.16
2022-08-07T03:13:10.227Z,13.00
2022-08-07T03:18:17.618Z,13.03
2022-08-07T03:23:22.005Z,13.04
2022-08-07T03:28:39.580Z,13.10
2022-08-07T03:33:43.088Z,12.87
2022-08-07T03:38:46.498Z,12.78
2022-08-07T03:43:57.275Z,12.93
2022-08-07T03:49:02.994Z,12.87
2022-08-07T03:54:36.064Z,12.71
2022-08-07T03:59:27.603Z,12.62
2022-08-07T04:04:29.130Z,12.60
2022-08-07T04:09:45.143Z,12.69
2022-08-07T04:14:53.121Z,12.65
2022-08-07T04:19:55.245Z,12.68
2022-08-07T04:24:58.769Z,12.62
2022-08-07T04:30:04.895Z,12.65
2022-08-07T04:35:12.755Z,12.39
2022-08-07T04:40:14.662Z,12.41
2022-08-07T04:45:20.981Z,12.46
2022-08-07T04:50:45.127Z,12.47
2022-08-07T04:58:12.967Z,12.49
2022-08-07T05:01:32.291Z,12.71
2022-08-07T05:06:43.574Z,12.88
2022-08-07T05:11:56.892Z,12.97
2022-08-07T05:17:05.877Z,13.04
2022-08-07T05:22:19.054Z,13.21
2022-08-07T05:28:16.928Z,13.33
2022-08-07T05:32:54.515Z,13.40
2022-08-07T05:38:08.340Z,13.61
2022-08-07T05:43:11.626Z,13.66
2022-08-07T05:48:15.235Z,13.74
2022-08-07T05:54:12.227Z,13.80
2022-08-07T05:58:40.454Z,14.17
2022-08-07T06:03:57.270Z,14.31
2022-08-07T06:09:04.586Z,14.79
2022-08-07T06:14:12.182Z,14.91
2022-08-07T06:19:18.236Z,15.16
2022-08-07T06:24:57.930Z,15.46
2022-08-07T06:30:01.390Z,16.01
2022-08-07T06:35:10.496Z,16.29
2022-08-07T06:40:21.356Z,16.70
2022-08-07T06:45:24.861Z,16.98
2022-08-07T06:50:27.414Z,17.53
2022-08-07T06:56:00.451Z,17.68
2022-08-07T07:00:56.088Z,17.77
2022-08-07T07:06:03.731Z,18.12
2022-08-07T07:11:14.043Z,18.48
2022-08-07T07:16:33.461Z,18.73
2022-08-07T07:22:05.309Z,19.09
2022-08-07T07:27:04.383Z,19.19
2022-08-07T07:32:12.236Z,19.42
2022-08-07T07:37:44.406Z,19.67
2022-08-07T07:42:40.027Z,19.85
2022-08-07T07:47:52.502Z,20.19
2022-08-07T07:52:56.395Z,20.55
2022-08-07T07:57:58.696Z,20.68
2022-08-07T08:03:07.918Z,20.82
2022-08-07T08:08:32.356Z,21.02
2022-08-07T08:13:54.995Z,21.28
2022-08-07T08:19:00.409Z,21.25
2022-08-07T08:24:36.242Z,21.53
2022-08-07T08:29:55.862Z,21.83
2022-08-07T08:34:59.626Z,22.20
2022-08-07T08:40:02.887Z,22.20
2022-08-07T08:45:18.425Z,22.28
2022-08-07T08:50:39.357Z,22.21
2022-08-07T08:55:54.891Z,22.38
2022-08-07T09:01:46.549Z,22.49
2022-08-07T09:07:03.344Z,22.55
2022-08-07T09:12:31.011Z,22.73
2022-08-07T09:18:36.741Z,22.83
2022-08-07T09:24:30.794Z,22.95
2022-08-07T09:30:03.321Z,22.73
2022-08-07T09:36:00.941Z,23.03
2022-08-07T09:41:58.677Z,22.60
2022-08-07T09:47:50.786Z,22.98
2022-08-07T09:52:39.923Z,23.09
2022-08-07T09:57:50.118Z,23.08
2022-08-07T10:04:06.536Z,23.33
2022-08-07T10:08:44.493Z,23.23
2022-08-07T10:14:30.301Z,23.23
2022-08-07T10:19:59.015Z,23.24
2022-08-07T10:25:07.604Z,23.09
2022-08-07T10:30:18.544Z,23.06
2022-08-07T10:36:12.475Z,23.14
2022-08-07T10:41:47.151Z,23.25
2022-08-07T10:47:19.347Z,23.16
2022-08-07T10:52:40.160Z,23.07
2022-08-07T10:58:02.669Z,23.08
2022-08-07T11:03:55.278Z,23.09
2022-08-07T11:09:12.628Z,22.94
2022-08-07T11:14:43.941Z,22.94
2022-08-07T11:20:00.130Z,23.08
2022-08-07T11:25:25.715Z,23.10
2022-08-07T11:30:41.764Z,23.03
2022-08-07T11:36:11.785Z,23.05
2022-08-07T11:41:28.400Z,23.04
2022-08-07T11:46:48.787Z,23.05
2022-08-07T11:52:07.421Z,22.96
2022-08-07T11:57:59.665Z,22.97
2022-08-07T12:03:45.406Z,23.07
2022-08-07T12:08:55.865Z,23.09
2022-08-07T12:14:08.463Z,23.11
2022-08-07T12:19:35.618Z,23.09
2022-08-07T12:26:21.497Z,23.24
2022-08-07T12:30:46.797Z,23.25
2022-08-07T12:35:58.035Z,23.18
2022-08-07T12:41:02.655Z,23.20
2022-08-07T12:46:26.642Z,23.25
2022-08-07T12:52:12.154Z,23.27
2022-08-07T12:57:11.274Z,23.37
2022-08-07T13:02:49.486Z,23.52
2022-08-07T13:08:12.002Z,23.46
2022-08-07T13:13:47.408Z,23.37
2022-08-07T13:18:49.118Z,23.63
2022-08-07T13:24:11.391Z,23.40
2022-08-07T13:29:51.221Z,23.61
2022-08-07T13:35:15.845Z,23.71
2022-08-07T13:40:36.459Z,23.73
2022-08-07T13:46:11.455Z,23.95
2022-08-07T13:51:27.181Z,23.86
2022-08-07T13:56:36.052Z,23.69
2022-08-07T14:02:03.699Z,23.77
2022-08-07T14:07:09.638Z,23.77
2022-08-07T14:12:27.447Z,23.80
2022-08-07T14:18:16.143Z,23.77
2022-08-07T14:23:12.244Z,23.79
2022-08-07T14:28:17.525Z,23.86
2022-08-07T14:33:23.382Z,23.96
2022-08-07T14:38:31.322Z,23.94
2022-08-07T14:43:58.778Z,24.16
2022-08-07T14:49:56.018Z,23.98
2022-08-07T14:54:31.032Z,23.88
2022-08-07T15:00:03.625Z,23.98
2022-08-07T15:15:52.397Z,24.00
2022-08-07T15:20:59.170Z,24.04
2022-08-07T15:26:09.292Z,24.05
2022-08-07T15:32:00.482Z,24.00
2022-08-07T15:42:46.534Z,24.09
2022-08-07T15:53:02.498Z,24.20
2022-08-07T15:58:09.425Z,24.04
2022-08-07T16:03:46.436Z,24.15
2022-08-07T16:08:47.724Z,23.99
2022-08-07T16:14:02.694Z,24.03
2022-08-07T16:19:42.812Z,24.07
2022-08-07T16:24:56.283Z,23.97
2022-08-07T16:30:31.226Z,24.02
2022-08-07T16:35:52.003Z,24.01
2022-08-07T16:41:23.211Z,23.97
2022-08-07T16:47:05.716Z,23.93
2022-08-07T16:52:51.397Z,23.91
2022-08-07T16:58:01.812Z,23.95
2022-08-07T17:03:18.679Z,23.88
2022-08-07T17:09:09.767Z,23.84
2022-08-07T17:14:19.124Z,23.85
2022-08-07T17:19:23.984Z,23.85
2022-08-07T17:25:08.255Z,23.85
2022-08-07T17:30:19.570Z,23.80
2022-08-07T17:35:54.976Z,23.71
2022-08-07T17:42:02.295Z,23.71
2022-08-07T17:46:44.175Z,23.65
2022-08-07T17:52:01.185Z,23.60
2022-08-07T17:57:18.670Z,23.55
2022-08-07T18:02:41.241Z,23.53
2022-08-07T18:08:23.919Z,23.45
2022-08-07T18:13:50.147Z,23.39
2022-08-07T18:21:08.596Z,23.39
2022-08-07T18:24:34.392Z,23.35
2022-08-07T18:30:08.032Z,23.28
2022-08-07T18:35:51.529Z,23.23
2022-08-07T18:41:44.997Z,23.14
2022-08-07T18:47:00.053Z,23.01
2022-08-07T18:52:54.392Z,22.99
2022-08-07T18:58:19.608Z,22.85
2022-08-07T19:03:42.685Z,22.87
2022-08-07T19:09:09.424Z,22.60
2022-08-07T19:14:39.662Z,22.54
2022-08-07T19:19:57.375Z,22.47
2022-08-07T19:25:05.713Z,22.38
2022-08-07T19:31:06.450Z,22.27
2022-08-07T19:35:34.135Z,22.08
2022-08-07T19:40:49.319Z,21.99
2022-08-07T19:46:08.098Z,21.74
2022-08-07T19:51:19.182Z,21.76
2022-08-07T19:58:01.915Z,21.63
2022-08-07T20:01:56.122Z,21.51
2022-08-07T20:07:00.366Z,21.42
2022-08-07T20:12:31.833Z,21.33
2022-08-07T20:17:26.552Z,21.12
2022-08-07T20:22:33.870Z,21.02
2022-08-07T20:27:46.220Z,20.74
2022-08-07T20:32:54.649Z,20.72
2022-08-07T20:37:58.864Z,20.58
2022-08-07T20:43:03.801Z,20.43
2022-08-07T20:48:30.242Z,20.51
2022-08-07T20:54:02.140Z,20.26
2022-08-07T20:59:05.150Z,20.18
2022-08-07T21:04:21.963Z,19.94
2022-08-07T21:09:51.589Z,19.84
2022-08-07T21:14:56.669Z,19.82
2022-08-07T21:20:04.389Z,19.73
2022-08-07T21:25:19.436Z,19.63
2022-08-07T21:30:25.204Z,19.69
2022-08-07T21:36:05.907Z,19.49
2022-08-07T21:41:10.913Z,19.41
2022-08-07T21:46:31.261Z,19.28
2022-08-07T21:51:51.216Z,19.15
2022-08-07T21:57:40.027Z,19.29
2022-08-07T22:02:47.447Z,19.07
2022-08-07T22:07:59.602Z,18.73
2022-08-07T22:13:05.696Z,18.82
2022-08-07T22:18:24.184Z,18.80
2022-08-07T22:23:47.338Z,18.76
2022-08-07T22:28:55.006Z,18.73
2022-08-07T22:34:07.715Z,18.64
2022-08-07T22:39:52.418Z,18.62
2022-08-07T22:44:59.989Z,18.49
2022-08-07T22:50:29.002Z,18.47
2022-08-07T22:55:56.828Z,18.26
2022-08-07T23:01:11.513Z,18.14
2022-08-07T23:06:39.689Z,18.05
2022-08-07T23:12:20.909Z,18.08
2022-08-07T23:17:46.610Z,18.00
2022-08-07T23:24:06.154Z,17.85
2022-08-07T23:29:42.665Z,17.79
2022-08-07T23:34:49.675Z,17.72
2022-08-07T23:40:08.547Z,17.65
2022-08-07T23:46:03.628Z,17.46
2022-08-07T23:53:00.394Z,17.31
2022-08-07T23:57:04.956Z,17.30
